Time;durP1;ratioP1;P1;durP2;ratioP2;P2;SDS_P1;SDS_P2;PMS_P1;PMS_P2;Temp;Humidity;BMP_temperature;BMP_pressure;BME280_temperature;BME280_humidity;BME280_pressure;Samples;Min_cycle;Max_cycle;Signal;HPM_P1;HPM_P2
2022/03/21 00:01:02;;;;;;;;;28.50;28.00;;;;;16.98;44.35;102959.91;4919750;29;8804;-77
2022/03/21 00:03:29;;;;;;;;;28.00;26.50;;;;;16.97;44.48;102963.38;4918814;29;10911;-77
2022/03/21 00:05:56;;;;;;;;;27.50;27.00;;;;;17.02;44.33;102965.28;4918813;29;10950;-77
2022/03/21 00:08:22;;;;;;;;;31.00;27.00;;;;;17.00;44.29;102967.00;4919374;29;10846;-77
2022/03/21 00:10:48;;;;;;;;;32.00;31.00;;;;;16.96;44.35;102966.84;4919203;29;10704;-77
2022/03/21 00:13:15;;;;;;;;;31.50;28.50;;;;;17.00;44.23;102966.09;4922628;29;10706;-77
2022/03/21 00:15:44;;;;;;;;;31.00;29.25;;;;;16.97;44.34;102966.91;4918949;29;10941;-77
2022/03/21 00:18:13;;;;;;;;;29.00;27.00;;;;;16.95;44.38;102963.31;4919014;29;11454;-77
2022/03/21 00:20:39;;;;;;;;;38.00;33.00;;;;;16.97;44.49;102977.47;4918606;29;10682;-77
2022/03/21 00:23:05;;;;;;;;;28.75;27.25;;;;;16.98;43.99;102973.09;4919643;29;10861;-77
2022/03/21 00:25:30;;;;;;;;;30.25;28.00;;;;;16.95;44.18;102972.97;4918845;29;8808;-77
2022/03/21 00:27:55;;;;;;;;;30.50;28.75;;;;;16.98;44.19;102973.97;4918970;29;9570;-77
2022/03/21 00:30:21;;;;;;;;;30.50;29.00;;;;;16.98;44.33;102976.63;4919419;29;8812;-78
2022/03/21 00:32:47;;;;;;;;;28.50;28.50;;;;;16.99;44.09;102969.56;4918932;29;9313;-77
2022/03/21 00:35:15;;;;;;;;;32.50;28.00;;;;;16.94;43.96;102969.47;4918742;29;8804;-78
2022/03/21 00:37:43;;;;;;;;;27.00;27.00;;;;;16.95;44.30;102972.97;4919080;29;8895;-78
2022/03/21 00:40:09;;;;;;;;;27.75;25.75;;;;;16.96;44.14;102972.13;4915779;29;10783;-77
2022/03/21 00:42:37;;;;;;;;;26.25;24.75;;;;;16.91;44.19;102971.97;4916110;29;10707;-77
2022/03/21 00:45:05;;;;;;;;;28.50;27.25;;;;;16.94;44.06;102968.56;4916295;29;8934;-76
2022/03/21 00:47:31;;;;;;;;;24.25;23.25;;;;;16.96;43.97;102978.31;4915306;29;10775;-76
2022/03/21 00:49:56;;;;;;;;;27.25;26.25;;;;;16.93;44.30;102967.66;4916142;29;10853;-77
2022/03/21 00:52:22;;;;;;;;;30.25;26.00;;;;;16.87;44.46;102962.22;4916077;29;10889;-77
2022/03/21 00:54:47;;;;;;;;;30.00;27.75;;;;;16.95;44.47;102972.97;4915815;29;8875;-76
2022/03/21 00:57:12;;;;;;;;;30.75;26.25;;;;;16.92;44.09;102972.03;4916447;29;8833;-78
2022/03/21 00:59:38;;;;;;;;;31.00;28.25;;;;;16.90;44.49;102972.84;4915971;29;8923;-78
2022/03/21 01:02:04;;;;;;;;;26.50;26.00;;;;;16.87;44.37;102973.63;4915254;29;8832;-77
2022/03/21 01:04:29;;;;;;;;;29.75;28.25;;;;;16.88;44.44;102974.53;4915304;29;8875;-77
2022/03/21 01:06:54;;;;;;;;;31.50;29.75;;;;;16.83;44.36;102966.47;4915629;29;8835;-77
2022/03/21 01:09:20;;;;;;;;;29.75;26.50;;;;;16.88;44.05;102971.91;4915678;29;8796;-77
2022/03/21 01:11:45;;;;;;;;;26.00;24.25;;;;;16.85;44.21;102975.34;4916503;29;8827;-77
2022/03/21 01:14:11;;;;;;;;;28.25;27.50;;;;;16.90;44.24;102975.50;4918224;29;8811;-77
2022/03/21 01:16:37;;;;;;;;;27.25;26.50;;;;;16.85;44.37;102978.00;4914767;29;8851;-77
2022/03/21 01:19:05;;;;;;;;;29.50;27.75;;;;;16.88;44.12;102975.44;4915875;29;8800;-77
2022/03/21 01:21:30;;;;;;;;;26.50;26.50;;;;;16.88;44.02;102978.06;4915009;29;10604;-77
2022/03/21 01:23:55;;;;;;;;;28.75;26.25;;;;;16.88;44.08;102985.09;4915082;29;10833;-77
2022/03/21 01:26:30;;;;;;;;;26.00;24.50;;;;;16.86;44.24;102978.91;4915267;29;8796;-77
2022/03/21 01:28:57;;;;;;;;;29.00;27.75;;;;;16.81;44.10;102983.13;4915270;29;8836;-78
2022/03/21 01:31:22;;;;;;;;;26.50;26.25;;;;;16.84;44.29;102986.75;4915425;29;11311;-77
2022/03/21 01:33:48;;;;;;;;;19.75;19.75;;;;;16.87;44.12;102985.97;4915026;29;10750;-77
2022/03/21 01:36:13;;;;;;;;;33.25;26.50;;;;;16.86;44.20;102987.72;4914754;29;8948;-77
2022/03/21 01:38:38;;;;;;;;;29.00;26.75;;;;;16.86;44.21;102987.72;4915281;29;8920;-77
2022/03/21 01:41:04;;;;;;;;;28.25;26.50;;;;;16.79;43.98;102993.66;4915403;29;8792;-77
2022/03/21 01:43:29;;;;;;;;;22.50;22.50;;;;;16.89;44.55;102994.81;4914265;29;8816;-77
2022/03/21 01:45:54;;;;;;;;;29.50;28.00;;;;;16.82;44.27;102992.84;4915170;29;8804;-77
2022/03/21 01:48:20;;;;;;;;;25.50;23.75;;;;;16.80;44.00;102989.25;4915357;29;8847;-76
2022/03/21 01:50:49;;;;;;;;;23.00;21.50;;;;;16.83;44.38;102989.34;4914413;29;8805;-77
2022/03/21 01:55:59;;;;;;;;;31.00;28.25;;;;;16.86;44.19;102998.25;4914919;29;10671;-76
2022/03/21 01:58:25;;;;;;;;;23.75;23.75;;;;;16.76;44.20;102995.28;4914373;29;10621;-78
2022/03/21 02:00:51;;;;;;;;;31.25;27.25;;;;;16.77;44.19;102997.97;4914856;29;10514;-78
2022/03/21 02:03:19;;;;;;;;;22.75;22.75;;;;;16.80;44.12;102995.41;4914700;29;8797;-77
2022/03/21 02:05:47;;;;;;;;;25.00;23.50;;;;;16.77;44.03;103003.25;4913715;29;10720;-77
2022/03/21 02:08:13;;;;;;;;;25.25;24.75;;;;;16.79;43.99;102998.03;4914914;29;10571;-77
2022/03/21 02:10:39;;;;;;;;;24.25;20.75;;;;;16.78;43.78;102998.88;4914468;29;10770;-77
2022/03/21 02:13:05;;;;;;;;;24.25;23.25;;;;;16.75;44.33;103006.69;4917522;29;10528;-78
2022/03/21 02:15:31;;;;;;;;;24.00;23.00;;;;;16.71;44.02;103000.44;4914506;29;8872;-77
2022/03/21 02:18:01;;;;;;;;;29.00;24.25;;;;;16.80;44.05;103003.31;4914416;29;10693;-77
2022/03/21 02:20:31;;;;;;;;;26.25;24.25;;;;;16.81;43.96;103001.59;4914087;29;8809;-77
2022/03/21 02:23:18;;;;;;;;;27.00;26.50;;;;;16.71;43.98;102997.78;4914636;29;10586;-78
2022/03/21 02:25:44;;;;;;;;;28.00;27.50;;;;;16.76;43.95;102998.81;4913217;29;10604;-76
2022/03/21 02:28:12;;;;;;;;;28.75;26.50;;;;;16.75;43.99;103007.59;4914455;29;10591;-77
2022/03/21 02:30:45;;;;;;;;;32.25;29.75;;;;;16.78;43.86;103004.16;4914093;29;11324;-76
2022/03/21 02:33:11;;;;;;;;;25.25;25.25;;;;;16.74;44.27;103005.78;4913648;29;10658;-77
2022/03/21 02:35:38;;;;;;;;;24.25;24.25;;;;;16.72;44.01;103001.34;4913864;29;10680;-78
2022/03/21 02:38:06;;;;;;;;;28.50;28.50;;;;;16.77;43.87;103002.34;4913975;29;10561;-78
2022/03/21 02:40:32;;;;;;;;;26.75;26.25;;;;;16.76;43.89;103008.47;4913655;29;10811;-78
2022/03/21 02:42:57;;;;;;;;;27.00;26.00;;;;;16.74;44.00;103000.53;4914296;29;10853;-79
2022/03/21 02:45:22;;;;;;;;;25.25;23.00;;;;;16.72;44.10;102993.41;4913986;29;8852;-78
2022/03/21 02:47:48;;;;;;;;;25.50;23.50;;;;;16.76;44.06;102996.16;4913345;29;8812;-78
2022/03/21 02:50:17;;;;;;;;;26.50;24.25;;;;;16.68;44.47;103002.06;4914167;29;8832;-79
2022/03/21 02:52:46;;;;;;;;;24.75;21.75;;;;;16.70;44.31;103006.53;4913663;29;8804;-79
2022/03/21 02:55:12;;;;;;;;;25.50;23.75;;;;;16.70;44.41;103003.00;4913631;29;10612;-78
2022/03/21 02:57:37;;;;;;;;;25.00;22.75;;;;;16.68;44.26;102999.44;4913627;29;10391;-78
2022/03/21 03:00:03;;;;;;;;;24.25;23.25;;;;;16.72;44.30;103003.97;4913777;29;8919;-77
2022/03/21 03:02:28;;;;;;;;;15.75;13.75;;;;;16.72;43.87;103004.84;4912627;29;8924;-77
2022/03/21 03:04:54;;;;;;;;;23.25;22.50;;;;;16.66;44.26;103004.66;4913712;29;8884;-77
2022/03/21 03:07:19;;;;;;;;;27.75;26.25;;;;;16.73;44.21;103013.66;4913856;29;8899;-78
2022/03/21 03:09:44;;;;;;;;;19.25;19.25;;;;;16.63;44.07;103007.22;4913138;29;8844;-78
2022/03/21 03:12:09;;;;;;;;;22.00;21.00;;;;;16.72;43.77;103010.09;4917306;29;8891;-78
2022/03/21 03:14:35;;;;;;;;;22.50;22.00;;;;;16.67;44.10;103010.84;4912989;29;8831;-78
2022/03/21 03:17:01;;;;;;;;;22.50;21.75;;;;;16.62;44.24;103021.22;4913482;29;8797;-78
2022/03/21 03:19:26;;;;;;;;;28.00;24.00;;;;;16.70;44.16;103013.56;4913842;29;9645;-79
2022/03/21 03:21:53;;;;;;;;;23.75;23.00;;;;;16.66;44.11;103014.31;4912917;29;10421;-77
2022/03/21 03:24:21;;;;;;;;;24.75;24.00;;;;;16.68;44.22;103020.53;4913569;29;8831;-78
2022/03/21 03:26:50;;;;;;;;;23.75;22.75;;;;;16.67;44.25;103016.09;4913351;29;11416;-77
2022/03/21 03:29:15;;;;;;;;;22.75;21.75;;;;;16.67;44.19;103026.66;4913165;29;10494;-77
2022/03/21 03:31:40;;;;;;;;;30.50;25.50;;;;;16.61;44.09;103018.56;4913459;29;10614;-78
2022/03/21 03:34:09;;;;;;;;;25.00;23.75;;;;;16.69;44.19;103025.84;4913288;29;8828;-78
2022/03/21 03:36:35;;;;;;;;;24.00;23.50;;;;;16.67;44.13;103022.28;4912781;29;8796;-78
2022/03/21 03:39:00;;;;;;;;;21.50;19.25;;;;;16.62;44.02;103022.97;4913736;29;10584;-78
2022/03/21 03:41:27;;;;;;;;;20.50;20.50;;;;;16.67;43.91;103027.56;4913276;29;8808;-77
2022/03/21 03:43:52;;;;;;;;;26.75;24.75;;;;;16.69;44.11;103024.94;4912364;29;8848;-78
2022/03/21 03:46:18;;;;;;;;;24.00;21.75;;;;;16.61;43.90;103027.34;4913578;29;10640;-77
2022/03/21 03:48:44;;;;;;;;;16.25;13.00;;;;;16.62;44.04;103023.88;4913400;29;8836;-78
2022/03/21 03:51:10;;;;;;;;;25.50;24.75;;;;;16.62;44.16;103036.16;4913091;29;8796;-78
2022/03/21 03:53:36;;;;;;;;;24.25;21.50;;;;;16.59;44.18;103030.78;4914092;29;10675;-78
2022/03/21 03:56:02;;;;;;;;;24.00;23.00;;;;;16.56;44.07;103026.31;4913659;29;10482;-78
2022/03/21 03:58:28;;;;;;;;;24.75;24.75;;;;;16.66;44.26;103027.50;4912744;29;9030;-77
2022/03/21 04:00:54;;;;;;;;;27.00;22.50;;;;;16.65;44.19;103034.50;4913852;29;9555;-78
2022/03/21 04:06:03;;;;;;;;;27.00;24.25;;;;;16.64;43.88;103031.84;4913007;29;8824;-77
2022/03/21 04:08:28;;;;;;;;;26.25;25.00;;;;;16.62;43.97;103033.50;4912849;29;10752;-78
2022/03/21 04:10:54;;;;;;;;;20.00;20.00;;;;;16.53;44.25;103033.22;4912908;29;8812;-78
2022/03/21 04:13:22;;;;;;;;;26.00;22.75;;;;;16.62;43.79;103031.78;4916790;29;8919;-78
2022/03/21 04:15:47;;;;;;;;;23.25;22.25;;;;;16.60;44.11;103029.94;4915540;29;9260;-79
2022/03/21 04:18:13;;;;;;;;;23.00;23.00;;;;;16.55;43.94;103037.69;4916142;29;10268;-79
2022/03/21 04:20:39;;;;;;;;;26.25;24.50;;;;;16.58;43.89;103031.63;4916793;29;8793;-78
2022/03/21 04:23:04;;;;;;;;;24.50;23.00;;;;;16.57;44.31;103035.13;4916538;29;8851;-77
2022/03/21 04:25:30;;;;;;;;;23.25;21.00;;;;;16.57;44.52;103032.50;4915772;29;8949;-77
2022/03/21 04:27:56;;;;;;;;;22.25;20.50;;;;;16.63;44.26;103037.97;4916879;29;8804;-77
2022/03/21 04:30:23;;;;;;;;;19.75;19.75;;;;;16.61;44.03;103042.31;4916528;29;8792;-77
2022/03/21 04:32:49;;;;;;;;;20.25;19.25;;;;;16.63;44.00;103037.97;4915797;29;8797;-78
2022/03/21 04:35:14;;;;;;;;;23.50;22.00;;;;;16.56;43.88;103044.78;4916713;29;10545;-78
2022/03/21 04:37:40;;;;;;;;;26.50;23.25;;;;;16.55;44.18;103045.59;4916126;29;8796;-78
2022/03/21 04:40:07;;;;;;;;;21.75;21.75;;;;;16.56;44.00;103041.22;4916333;29;8804;-78
2022/03/21 04:42:37;;;;;;;;;24.75;21.75;;;;;16.57;44.13;103041.28;4916178;29;8899;-78
2022/03/21 04:45:03;;;;;;;;;23.75;19.50;;;;;16.53;44.08;103042.03;4916111;29;10546;-78
2022/03/21 04:47:30;;;;;;;;;24.75;23.75;;;;;16.54;44.04;103050.78;4915546;29;10496;-79
2022/03/21 04:49:55;;;;;;;;;20.50;19.00;;;;;16.55;44.14;103047.31;4916502;29;10593;-78
2022/03/21 04:52:20;;;;;;;;;25.75;24.50;;;;;16.58;43.75;103045.72;4916187;29;10576;-79
2022/03/21 04:54:45;;;;;;;;;20.75;20.75;;;;;16.55;44.01;103045.59;4915638;29;8813;-78
2022/03/21 04:57:12;;;;;;;;;24.00;24.00;;;;;16.52;44.10;103047.22;4916532;29;8895;-78
2022/03/21 04:59:37;;;;;;;;;25.75;24.25;;;;;16.56;43.89;103052.69;4915718;29;9003;-78
2022/03/21 05:02:03;;;;;;;;;22.75;21.50;;;;;16.55;43.90;103053.50;4915572;29;10672;-78
2022/03/21 05:04:29;;;;;;;;;25.25;24.00;;;;;16.51;43.89;103053.34;4915299;29;8843;-78
2022/03/21 05:06:55;;;;;;;;;26.00;22.00;;;;;16.49;43.74;103058.59;4915765;29;9504;-78
2022/03/21 05:09:20;;;;;;;;;25.00;23.25;;;;;16.56;43.99;103057.03;4915517;29;10742;-78
2022/03/21 05:11:45;;;;;;;;;22.50;21.50;;;;;16.54;43.85;103056.06;4916784;29;8803;-79
2022/03/21 05:14:11;;;;;;;;;25.75;24.00;;;;;16.54;43.77;103054.34;4917626;29;8938;-78
2022/03/21 05:16:36;;;;;;;;;22.75;21.75;;;;;16.47;43.73;103062.00;4915614;29;8825;-77
2022/03/21 05:19:02;;;;;;;;;29.75;28.00;;;;;16.49;43.97;103055.06;4915449;29;8806;-78
2022/03/21 05:21:28;;;;;;;;;23.50;22.75;;;;;16.50;43.96;103055.06;4914588;29;8820;-78
2022/03/21 05:32:05;;;;;;;;;24.25;21.25;;;;;16.51;43.31;103058.63;4915413;29;10307;-77
2022/03/21 05:37:14;;;;;;;;;25.00;25.00;;;;;16.51;43.33;103063.88;4914653;29;8835;-79
2022/03/21 05:40:31;;;;;;;;;19.25;18.00;;;;;16.50;43.29;103072.63;4915101;29;10815;-78
2022/03/21 05:42:25;;;;;;;;;25.25;24.25;;;;;16.46;43.56;103069.00;4914833;29;9627;-79
2022/03/21 05:44:50;;;;;;;;;23.75;22.50;;;;;16.43;43.46;103071.53;4914889;29;10857;-78
2022/03/21 05:47:16;;;;;;;;;28.50;25.00;;;;;16.49;43.19;103071.78;4914857;29;10668;-79
2022/03/21 05:49:41;;;;;;;;;28.50;25.25;;;;;16.52;43.39;103074.50;4914559;29;8828;-77
2022/03/21 05:52:06;;;;;;;;;24.00;20.25;;;;;16.49;43.41;103082.31;4915043;29;8812;-77
2022/03/21 05:54:32;;;;;;;;;26.00;24.00;;;;;16.42;43.63;103083.81;4914473;29;8803;-77
2022/03/21 05:57:03;;;;;;;;;26.00;26.00;;;;;16.49;43.27;103084.94;4914558;29;8808;-78
2022/03/21 06:02:12;;;;;;;;;24.50;23.25;;;;;16.44;43.26;103086.53;4914533;29;10581;-77
2022/03/21 06:04:37;;;;;;;;;26.50;24.75;;;;;16.46;43.48;103083.97;4914165;29;10731;-78
2022/03/21 06:07:03;;;;;;;;;23.00;21.25;;;;;16.43;43.54;103082.09;4915129;29;8809;-78
2022/03/21 06:09:28;;;;;;;;;26.50;25.25;;;;;16.49;43.19;103090.22;4914529;29;9585;-78
2022/03/21 06:11:54;;;;;;;;;25.75;25.75;;;;;16.45;43.36;103088.34;4916588;29;8800;-77
2022/03/21 06:14:20;;;;;;;;;21.25;21.25;;;;;16.43;43.35;103090.00;4916242;29;8805;-78
2022/03/21 06:16:46;;;;;;;;;28.00;24.25;;;;;16.39;43.26;103090.75;4913877;29;8804;-78
2022/03/21 06:19:11;;;;;;;;;20.00;20.00;;;;;16.37;43.45;103092.44;4914206;29;10944;-77
2022/03/21 06:21:36;;;;;;;;;23.50;22.25;;;;;16.45;43.34;103101.50;4914578;29;10618;-77
2022/03/21 06:24:02;;;;;;;;;23.25;20.50;;;;;16.36;43.38;103107.38;4913960;29;8821;-78
2022/03/21 06:26:27;;;;;;;;;31.00;28.00;;;;;16.33;43.54;103111.63;4913962;29;8805;-77
2022/03/21 06:28:52;;;;;;;;;26.25;24.25;;;;;16.44;43.08;103107.63;4914803;29;8844;-78
2022/03/21 06:31:18;;;;;;;;;22.25;18.25;;;;;16.33;43.32;103112.53;4914229;29;9631;-78
2022/03/21 06:33:43;;;;;;;;;26.00;22.50;;;;;16.41;43.24;103118.97;4913360;29;8808;-78
2022/03/21 06:36:09;;;;;;;;;28.00;25.25;;;;;16.39;43.00;103111.84;4914458;29;8805;-77
2022/03/21 06:38:37;;;;;;;;;26.75;25.50;;;;;16.37;43.16;103118.81;4912876;29;8820;-77
2022/03/21 06:41:05;;;;;;;;;24.00;24.00;;;;;16.41;43.17;103118.06;4914293;29;8820;-77
2022/03/21 06:43:30;;;;;;;;;26.00;22.75;;;;;16.43;43.38;103125.19;4913651;29;10801;-78
2022/03/21 06:45:55;;;;;;;;;23.50;23.50;;;;;16.38;43.06;103120.63;4913560;29;10662;-78
2022/03/21 06:48:27;;;;;;;;;29.75;26.00;;;;;16.43;43.16;103127.81;4914520;29;8812;-78
2022/03/21 06:50:55;;;;;;;;;22.75;21.75;;;;;16.36;43.48;103127.56;4914019;29;8800;-78
2022/03/21 06:53:22;;;;;;;;;28.00;25.25;;;;;16.42;43.54;103126.00;4913731;29;10678;-77
2022/03/21 06:55:47;;;;;;;;;20.00;19.75;;;;;16.36;43.30;103128.47;4913685;29;11390;-78
2022/03/21 06:58:13;;;;;;;;;25.25;25.25;;;;;16.47;47.00;103134.09;4916810;29;10734;-82
2022/03/21 07:00:40;;;;;;;;;28.25;25.75;;;;;16.48;45.97;103130.63;4916909;29;8796;-84
2022/03/21 07:03:05;;;;;;;;;25.25;25.25;;;;;16.61;51.96;103137.25;4919806;29;10770;-83
2022/03/21 07:05:31;;;;;;;;;22.50;21.25;;;;;16.73;51.92;103141.16;4914212;29;10805;-82
2022/03/21 07:07:56;;;;;;;;;20.00;19.00;;;;;16.82;51.27;103137.94;4914087;29;8832;-83
2022/03/21 07:10:21;;;;;;;;;26.00;22.50;;;;;16.91;54.81;103143.50;4914421;29;8812;-83
2022/03/21 07:12:47;;;;;;;;;21.50;21.50;;;;;16.96;54.38;103143.66;4917470;29;8820;-84
2022/03/21 07:15:12;;;;;;;;;21.75;21.75;;;;;17.05;58.28;103142.22;4913524;29;8800;-77
2022/03/21 07:17:41;;;;;;;;;28.00;26.50;;;;;17.13;56.81;103145.09;4913467;29;8793;-76
2022/03/21 07:20:10;;;;;;;;;26.50;24.50;;;;;17.11;57.54;103142.41;4913555;29;8800;-77
2022/03/21 07:22:35;;;;;;;;;28.50;28.50;;;;;17.24;62.56;103151.59;4912614;29;10681;-75
2022/03/21 07:25:01;;;;;;;;;30.25;27.75;;;;;17.20;61.22;103149.72;4913417;29;10814;-76
2022/03/21 07:27:26;;;;;;;;;28.00;26.50;;;;;17.21;62.58;103149.75;4913359;29;8835;-79
2022/03/21 07:29:51;;;;;;;;;36.00;35.00;;;;;17.07;61.85;103158.97;4912702;29;8788;-75
2022/03/21 07:32:17;;;;;;;;;38.25;32.75;;;;;17.00;61.08;103156.09;4907763;29;8831;-75
2022/03/21 07:34:43;;;;;;;;;39.75;35.25;;;;;16.89;59.89;103161.94;4907968;29;8811;-76
2022/03/21 07:37:08;;;;;;;;;40.00;35.25;;;;;16.89;60.22;103159.28;4911442;29;10936;-76
2022/03/21 07:39:35;;;;;;;;;36.25;34.25;;;;;16.85;59.02;103165.31;4912243;29;10079;-75
2022/03/21 07:42:01;;;;;;;;;39.00;33.00;;;;;16.84;58.34;103162.63;4911833;29;8827;-74
2022/03/21 07:47:20;;;;;;;;;41.25;37.75;;;;;16.86;57.04;103172.41;4913109;29;11061;-75
2022/03/21 07:49:46;;;;;;;;;33.75;32.50;;;;;16.84;56.20;103163.53;4914083;29;11293;-77
2022/03/21 07:52:12;;;;;;;;;45.50;36.75;;;;;16.86;55.86;103168.84;4915888;29;10997;-74
2022/03/21 07:54:37;;;;;;;;;50.25;40.00;;;;;16.86;55.09;103171.50;4909307;29;8887;-76
2022/03/21 07:57:04;;;;;;;;;44.75;38.00;;;;;16.85;54.39;103174.97;4915151;29;8875;-76
2022/03/21 07:59:29;;;;;;;;;41.75;38.00;;;;;16.81;54.66;103168.69;4916122;29;8938;-75
2022/03/21 08:01:54;;;;;;;;;40.00;37.25;;;;;16.82;53.73;103175.78;4914221;29;12158;-77
2022/03/21 08:04:20;;;;;;;;;37.25;33.75;;;;;16.81;53.49;103170.44;4916748;29;8844;-76
2022/03/21 08:06:45;;;;;;;;;41.25;31.75;;;;;17.13;50.11;103174.13;4917155;29;8883;-76
2022/03/21 08:09:10;;;;;;;;;38.25;36.50;;;;;17.17;50.75;103174.25;4916817;29;8832;-76
2022/03/21 08:11:35;;;;;;;;;39.00;36.75;;;;;17.06;50.57;103170.38;4916140;29;8828;-76
2022/03/21 08:14:01;;;;;;;;;49.00;39.75;;;;;17.11;48.40;103181.09;4930576;29;8794;-76
2022/03/21 08:16:26;;;;;;;;;46.00;39.75;;;;;17.04;49.57;103182.66;4936184;29;8856;-76
2022/03/21 08:18:52;;;;;;;;;50.50;43.00;;;;;17.09;46.25;103183.69;4935394;29;8810;-77
2022/03/21 08:21:19;;;;;;;;;45.50;40.25;;;;;17.05;48.37;103178.28;4924496;29;8880;-77
2022/03/21 08:23:45;;;;;;;;;53.75;45.25;;;;;17.00;47.06;103183.38;4915271;29;8828;-78
2022/03/21 08:26:11;;;;;;;;;43.75;37.25;;;;;16.91;48.32;103189.25;4916751;29;11588;-78
2022/03/21 08:28:36;;;;;;;;;47.75;41.75;;;;;16.92;47.80;103182.25;4916597;29;8804;-78
2022/03/21 08:31:02;;;;;;;;;48.25;42.00;;;;;16.94;47.49;103179.66;4916790;29;8855;-78
2022/03/21 08:33:27;;;;;;;;;50.75;43.25;;;;;16.93;47.66;103178.75;4914222;29;8844;-78
2022/03/21 08:35:53;;;;;;;;;53.50;43.25;;;;;16.94;47.59;103184.94;4916918;29;8829;-76
2022/03/21 08:38:18;;;;;;;;;50.75;42.75;;;;;16.97;46.92;103185.03;4916180;29;8965;-77
2022/03/21 08:40:43;;;;;;;;;51.75;43.00;;;;;16.91;47.40;103176.06;4914792;29;8835;-77
2022/03/21 08:43:09;;;;;;;;;55.75;45.00;;;;;16.89;47.09;103179.50;4914697;29;9599;-77
2022/03/21 08:45:35;;;;;;;;;48.25;42.50;;;;;16.88;47.20;103175.97;4915776;29;9010;-77
2022/03/21 08:48:01;;;;;;;;;47.75;42.00;;;;;16.92;46.75;103185.78;4916061;29;8843;-76
2022/03/21 08:50:27;;;;;;;;;45.75;40.25;;;;;16.91;47.00;103178.69;4915602;29;11590;-76
2022/03/21 08:52:53;;;;;;;;;55.25;44.75;;;;;16.99;46.50;103181.59;4914199;29;8883;-76
2022/03/21 08:55:18;;;;;;;;;52.75;44.50;;;;;16.94;46.67;103183.22;4916002;29;8812;-78
2022/03/21 08:57:49;;;;;;;;;43.50;38.75;;;;;16.97;46.23;103179.75;4915791;29;11664;-78
2022/03/21 09:00:15;;;;;;;;;49.00;41.00;;;;;16.96;46.11;103181.50;4914717;29;8816;-78
2022/03/21 09:02:41;;;;;;;;;46.25;39.50;;;;;17.02;46.21;103176.41;4914285;29;11587;-78
2022/03/21 09:05:07;;;;;;;;;45.75;39.75;;;;;17.05;45.66;103184.44;4915362;29;12595;-77
2022/03/21 09:07:35;;;;;;;;;52.00;44.00;;;;;16.99;46.03;103184.22;4915177;29;11664;-77
2022/03/21 09:10:00;;;;;;;;;43.25;39.25;;;;;17.04;45.87;103177.38;4915509;29;8848;-79
2022/03/21 09:12:25;;;;;;;;;38.00;36.25;;;;;17.07;45.60;103184.47;4916633;29;11115;-77
2022/03/21 09:14:51;;;;;;;;;42.50;37.75;;;;;17.05;45.71;103180.91;4933921;29;8817;-79
2022/03/21 09:17:16;;;;;;;;;48.00;40.00;;;;;17.12;45.58;103180.25;4934925;29;8806;-77
2022/03/21 09:19:41;;;;;;;;;42.75;37.25;;;;;17.12;45.30;103173.22;4934449;29;8797;-77
2022/03/21 09:22:10;;;;;;;;;44.00;37.25;;;;;17.10;45.33;103181.94;4917370;29;8844;-78
2022/03/21 09:24:35;;;;;;;;;39.25;36.00;;;;;17.12;45.31;103177.63;4915699;29;9572;-77
2022/03/21 09:27:00;;;;;;;;;38.50;35.25;;;;;17.15;45.43;103175.06;4915495;29;11206;-77
2022/03/21 09:29:26;;;;;;;;;38.50;35.00;;;;;17.11;45.62;103178.44;4914946;29;8824;-77
2022/03/21 09:31:52;;;;;;;;;40.75;34.50;;;;;17.10;45.38;103174.00;4913549;29;8808;-76
2022/03/21 09:34:18;;;;;;;;;30.00;30.00;;;;;17.18;45.41;103183.06;4915888;29;8796;-79
2022/03/21 09:36:44;;;;;;;;;32.25;29.00;;;;;17.12;45.12;103183.78;4915491;29;11641;-77
2022/03/21 09:39:12;;;;;;;;;27.25;26.50;;;;;17.11;45.66;103170.53;4916141;29;8829;-78
2022/03/21 09:41:38;;;;;;;;;32.75;30.00;;;;;17.10;45.48;103174.91;4914445;29;11122;-78
2022/03/21 09:44:07;;;;;;;;;38.75;33.75;;;;;17.16;45.13;103169.84;4913869;29;11299;-78
2022/03/21 09:46:33;;;;;;;;;31.25;29.75;;;;;17.16;45.16;103175.13;4915219;29;8808;-78
2022/03/21 09:48:58;;;;;;;;;36.00;33.25;;;;;17.16;45.12;103164.56;4914726;29;11077;-79
2022/03/21 09:51:29;;;;;;;;;32.50;31.25;;;;;17.23;45.24;103166.56;4915247;29;8860;-77
2022/03/21 09:53:55;;;;;;;;;32.00;29.75;;;;;17.21;45.20;103172.59;4913649;29;8925;-77
2022/03/21 09:56:21;;;;;;;;;29.75;29.75;;;;;17.22;44.93;103167.38;4915570;29;10864;-79
2022/03/21 09:58:47;;;;;;;;;28.50;27.25;;;;;17.26;45.13;103171.03;4914991;29;11095;-77
2022/03/21 10:01:14;;;;;;;;;29.25;27.75;;;;;17.32;44.94;103166.81;4915368;29;11026;-78
2022/03/21 10:03:40;;;;;;;;;26.50;25.75;;;;;17.33;44.83;103165.06;4913413;29;8809;-79
2022/03/21 10:06:34;;;;;;;;;26.00;25.00;;;;;17.34;44.94;103165.13;4914730;29;10883;-79
2022/03/21 10:09:06;;;;;;;;;24.50;23.25;;;;;17.44;44.43;103168.03;4915001;29;10823;-75
2022/03/21 10:11:34;;;;;;;;;27.75;26.75;;;;;17.43;44.73;103166.28;4914079;29;10876;-80
2022/03/21 10:14:19;;;;;;;;;24.50;24.00;;;;;17.49;44.41;103162.06;4928291;29;11524;-77
2022/03/21 10:16:58;;;;;;;;;22.25;20.75;;;;;17.42;44.73;103159.19;4933178;29;10676;-77
2022/03/21 10:19:25;;;;;;;;;22.50;22.00;;;;;17.49;44.35;103163.81;4934119;29;10425;-77
2022/03/21 10:22:01;;;;;;;;;24.50;21.75;;;;;17.48;44.66;103160.25;4919678;29;10857;-77
2022/03/21 10:24:30;;;;;;;;;25.75;23.75;;;;;17.49;44.35;103156.78;4914458;29;10847;-77
2022/03/21 10:26:55;;;;;;;;;25.75;25.25;;;;;17.48;44.47;103154.09;4914597;29;11518;-77
2022/03/21 10:29:21;;;;;;;;;28.50;25.50;;;;;17.58;44.29;103154.47;4914574;29;10762;-78
2022/03/21 10:31:48;;;;;;;;;25.50;23.75;;;;;17.57;44.55;103162.34;4912448;29;8840;-78
2022/03/21 10:34:18;;;;;;;;;25.00;25.00;;;;;17.59;44.28;103161.50;4915077;29;8908;-78
2022/03/21 10:37:15;;;;;;;;;24.00;23.00;;;;;17.59;44.34;103164.16;4914052;29;10768;-78
2022/03/21 10:39:50;;;;;;;;;22.75;22.75;;;;;17.61;44.54;103158.94;4913495;29;10759;-78
2022/03/21 10:42:16;;;;;;;;;21.00;19.00;;;;;17.56;44.49;103161.41;4912569;29;10857;-78
2022/03/21 10:44:53;;;;;;;;;17.00;17.00;;;;;17.62;44.20;103161.59;4913615;29;11615;-78
2022/03/21 10:47:18;;;;;;;;;24.50;24.00;;;;;17.62;44.21;103160.72;4913939;29;10958;-75
2022/03/21 10:49:44;;;;;;;;;21.00;21.00;;;;;17.58;43.99;103162.38;4913280;29;10897;-78
2022/03/21 10:52:18;;;;;;;;;19.25;17.75;;;;;17.75;43.74;103161.13;4925556;29;8940;-77
2022/03/21 10:54:48;;;;;;;;;22.25;21.00;;;;;17.72;43.83;103158.41;4931608;29;10649;-75
2022/03/21 10:57:32;;;;;;;;;19.25;18.25;;;;;17.64;43.49;103149.34;4915709;29;10663;-76
2022/03/21 11:00:16;;;;;;;;;17.75;16.75;;;;;17.68;43.64;103151.22;4894938;29;10510;-76
2022/03/21 11:02:57;;;;;;;;;19.00;17.00;;;;;17.75;43.33;103142.63;4894631;29;10562;-75
2022/03/21 11:05:24;;;;;;;;;16.75;16.25;;;;;17.74;43.36;103140.81;4894705;29;10551;-75
2022/03/21 11:07:51;;;;;;;;;20.75;18.00;;;;;17.68;43.42;103140.66;4903336;29;10461;-76
2022/03/21 11:10:17;;;;;;;;;21.75;18.75;;;;;17.71;43.33;103143.38;4913502;29;11355;-76
2022/03/21 11:12:43;;;;;;;;;17.75;17.50;;;;;17.65;43.20;103139.69;4916991;29;10537;-75
2022/03/21 11:15:10;;;;;;;;;17.00;15.50;;;;;17.71;43.30;103143.38;4913405;29;10592;-76
2022/03/21 11:17:36;;;;;;;;;19.00;17.00;;;;;17.75;43.33;103141.72;4912678;29;8824;-76
2022/03/21 11:20:06;;;;;;;;;14.75;14.75;;;;;17.71;43.35;103137.19;4913142;29;10493;-75
2022/03/21 11:22:36;;;;;;;;;17.50;14.75;;;;;17.64;43.17;103143.16;4913282;29;10132;-76
2022/03/21 11:25:04;;;;;;;;;16.00;14.50;;;;;17.69;43.20;103131.91;4912832;29;10490;-77
2022/03/21 11:27:57;;;;;;;;;18.50;17.75;;;;;17.75;43.13;103140.00;4912926;29;10494;-75
2022/03/21 11:30:41;;;;;;;;;15.25;15.00;;;;;17.71;42.85;103131.91;4913937;29;10183;-76
2022/03/21 11:33:25;;;;;;;;;17.25;16.00;;;;;17.69;42.91;103136.28;4913308;29;10203;-75
2022/03/21 11:35:59;;;;;;;;;12.75;12.75;;;;;17.71;42.75;103131.91;4912858;29;10238;-76